Time;durP1;ratioP1;P1;durP2;ratioP2;P2;SDS_P1;SDS_P2;PMS_P1;PMS_P2;Temp;Humidity;BMP_temperature;BMP_pressure;BME280_temperature;BME280_humidity;BME280_pressure;Samples;Min_cycle;Max_cycle;Signal;HPM_P1;HPM_P2
2023/03/12 00:02:01;;;;;;;5.27;1.50;;;-1.60;99.90;;;;;;4990534;28;20188;-66
2023/03/12 00:04:27;;;;;;;4.27;1.30;;;-1.60;99.90;;;;;;4990614;28;20180;-66
2023/03/12 00:06:53;;;;;;;2.50;1.27;;;-1.60;99.90;;;;;;4994654;28;20632;-67
2023/03/12 00:09:18;;;;;;;4.50;0.87;;;-1.70;99.90;;;;;;4991649;28;20796;-66
2023/03/12 00:11:44;;;;;;;5.90;1.57;;;-1.60;99.90;;;;;;4990977;28;20184;-66
2023/03/12 00:14:10;;;;;;;3.33;1.40;;;-1.70;99.90;;;;;;4990620;28;20238;-66
2023/03/12 00:16:35;;;;;;;2.57;1.10;;;-1.70;99.90;;;;;;4991262;28;20184;-66
2023/03/12 00:19:02;;;;;;;8.53;1.80;;;-1.70;99.90;;;;;;4990406;28;20191;-66
2023/03/12 00:21:27;;;;;;;2.70;1.37;;;-1.60;99.90;;;;;;4990618;28;20183;-66
2023/03/12 00:23:53;;;;;;;3.03;1.33;;;-1.70;99.90;;;;;;4992502;28;20683;-66
2023/03/12 00:26:20;;;;;;;3.00;1.73;;;-1.80;99.90;;;;;;4994750;28;20529;-66
2023/03/12 00:28:47;;;;;;;1.67;1.00;;;-1.80;99.90;;;;;;4994905;28;20219;-66
2023/03/12 00:31:22;;;;;;;1.30;0.70;;;-1.80;99.90;;;;;;4993047;28;20457;-66
2023/03/12 00:33:49;;;;;;;3.10;1.50;;;-1.80;99.90;;;;;;4994310;28;20462;-66
2023/03/12 00:36:16;;;;;;;3.10;1.20;;;-1.80;99.90;;;;;;4994385;28;20983;-65
2023/03/12 00:38:42;;;;;;;5.27;1.60;;;-1.90;99.90;;;;;;4994583;28;20423;-65
2023/03/12 00:41:07;;;;;;;2.67;1.50;;;-2.00;99.90;;;;;;4994204;28;20438;-65
2023/03/12 00:43:33;;;;;;;1.80;1.10;;;-2.00;99.90;;;;;;4993822;28;20419;-66
2023/03/12 00:45:59;;;;;;;1.70;0.90;;;-2.10;99.90;;;;;;4993881;28;20849;-66
2023/03/12 00:48:25;;;;;;;2.47;1.47;;;-2.10;99.90;;;;;;4994150;28;20191;-65
2023/03/12 00:50:50;;;;;;;4.63;1.70;;;-2.00;99.90;;;;;;4998185;28;20190;-65
2023/03/12 00:53:16;;;;;;;3.40;1.50;;;-2.00;99.90;;;;;;4998209;28;20207;-65
2023/03/12 00:55:41;;;;;;;3.53;1.47;;;-1.90;99.90;;;;;;4994173;28;20188;-65
2023/03/12 00:58:07;;;;;;;3.90;1.60;;;-1.90;99.90;;;;;;4993207;28;20267;-65
2023/03/12 01:00:33;;;;;;;6.73;1.60;;;-1.80;99.90;;;;;;4998750;28;20179;-65
2023/03/12 01:02:59;;;;;;;5.00;1.77;;;-1.90;99.90;;;;;;5001867;28;20271;-65
2023/03/12 01:05:24;;;;;;;1.90;1.03;;;-1.80;99.90;;;;;;4994327;28;20454;-65
2023/03/12 01:07:50;;;;;;;1.90;0.87;;;-1.80;99.90;;;;;;4998305;28;20191;-65
2023/03/12 01:10:19;;;;;;;1.70;0.97;;;-1.80;99.90;;;;;;4993967;28;20219;-65
2023/03/12 01:12:45;;;;;;;2.67;1.10;;;-1.80;99.90;;;;;;4992937;28;20199;-65
2023/03/12 01:15:14;;;;;;;8.77;1.27;;;-1.70;99.90;;;;;;4993604;28;20848;-65
2023/03/12 01:17:39;;;;;;;2.50;1.20;;;-1.60;99.90;;;;;;4993575;28;20187;-65
2023/03/12 01:20:07;;;;;;;2.60;1.27;;;-1.60;99.90;;;;;;4995197;28;20423;-65
2023/03/12 01:22:33;;;;;;;2.83;1.53;;;-1.60;99.90;;;;;;4988363;28;20188;-65
2023/03/12 01:24:58;;;;;;;1.90;0.90;;;-1.60;99.90;;;;;;4993043;28;20974;-65
2023/03/12 01:27:24;;;;;;;2.80;1.07;;;-1.60;99.90;;;;;;4992882;28;20480;-65
2023/03/12 01:29:49;;;;;;;7.50;1.33;;;-1.60;99.90;;;;;;4993879;28;20180;-66
2023/03/12 01:32:15;;;;;;;1.30;0.70;;;-1.60;99.90;;;;;;4992883;28;20211;-66
2023/03/12 01:34:42;;;;;;;4.27;1.30;;;-1.60;99.90;;;;;;4993260;28;20184;-66
2023/03/12 01:37:07;;;;;;;1.70;0.90;;;-1.50;99.90;;;;;;4993281;28;20779;-65
2023/03/12 01:39:33;;;;;;;1.50;0.93;;;-1.50;99.90;;;;;;4992705;28;20426;-65
2023/03/12 01:41:59;;;;;;;2.60;1.10;;;-1.40;99.90;;;;;;4992248;28;20552;-66
2023/03/12 01:44:25;;;;;;;2.27;1.20;;;-1.30;99.90;;;;;;4993760;28;20172;-66
2023/03/12 01:46:51;;;;;;;3.73;1.10;;;-1.30;99.90;;;;;;4993858;28;20421;-65
2023/03/12 01:49:18;;;;;;;2.07;0.87;;;-1.40;99.90;;;;;;4993498;28;20199;-66
2023/03/12 01:51:45;;;;;;;1.17;0.73;;;-1.40;99.90;;;;;;4993223;28;20180;-65
2023/03/12 01:54:17;;;;;;;1.80;0.80;;;-1.30;99.90;;;;;;4993195;28;20463;-66
2023/03/12 01:56:43;;;;;;;3.90;1.20;;;-1.30;99.90;;;;;;4993586;28;20419;-66
2023/03/12 01:59:28;;;;;;;4.00;1.57;;;-1.10;99.90;;;;;;5005664;28;20423;-66
2023/03/12 02:01:54;;;;;;;2.00;1.00;;;-1.10;99.90;;;;;;4992239;28;20415;-65
2023/03/12 02:04:23;;;;;;;3.57;1.17;;;-1.10;99.90;;;;;;4993147;28;20758;-66
2023/03/12 02:06:55;;;;;;;3.30;1.33;;;-1.20;99.90;;;;;;4996102;28;20179;-66
2023/03/12 02:09:21;;;;;;;2.30;1.30;;;-1.20;99.90;;;;;;5001130;28;20423;-65
2023/03/12 02:11:47;;;;;;;2.27;1.30;;;-1.20;99.90;;;;;;4992201;28;20591;-65
2023/03/12 02:14:13;;;;;;;1.90;1.20;;;-1.20;99.90;;;;;;4992325;28;20557;-65
2023/03/12 02:16:39;;;;;;;5.43;1.70;;;-1.20;99.90;;;;;;4992785;28;20467;-66
2023/03/12 02:19:26;;;;;;;2.37;1.13;;;-1.20;99.90;;;;;;4992898;28;20621;-65
2023/03/12 02:21:52;;;;;;;7.43;2.27;;;-1.20;99.90;;;;;;4984308;28;20419;-65
2023/03/12 02:24:27;;;;;;;2.73;1.20;;;-1.10;99.90;;;;;;4992850;28;20425;-66
2023/03/12 02:26:52;;;;;;;3.60;1.83;;;-0.90;99.90;;;;;;4980987;28;20175;-66
2023/03/12 02:29:18;;;;;;;3.87;1.53;;;-0.80;99.90;;;;;;4992625;28;20429;-65
2023/03/12 02:31:50;;;;;;;6.77;1.80;;;-0.70;99.90;;;;;;4992482;28;20227;-65
2023/03/12 02:34:16;;;;;;;2.60;1.00;;;-0.50;99.90;;;;;;4992627;28;20201;-65
2023/03/12 02:36:41;;;;;;;3.97;1.43;;;-0.50;99.90;;;;;;4992673;28;20415;-65
2023/03/12 02:39:11;;;;;;;3.43;1.40;;;-0.40;99.90;;;;;;4992403;28;20301;-65
2023/03/12 02:41:43;;;;;;;8.47;2.27;;;-0.30;99.90;;;;;;4991976;28;20630;-65
2023/03/12 02:44:15;;;;;;;8.00;2.20;;;-0.30;99.90;;;;;;4992059;28;20427;-66
2023/03/12 02:46:43;;;;;;;5.03;2.13;;;-0.20;99.90;;;;;;4992119;28;20509;-65
2023/03/12 02:49:13;;;;;;;6.07;2.20;;;-0.10;99.90;;;;;;4991868;28;20506;-66
2023/03/12 02:51:40;;;;;;;2.50;1.40;;;-0.10;99.90;;;;;;4992003;28;20454;-66
2023/03/12 02:54:06;;;;;;;4.43;1.50;;;0.00;99.90;;;;;;4991386;28;20463;-65
2023/03/12 02:56:32;;;;;;;2.53;1.30;;;0.10;99.90;;;;;;4992279;28;20514;-65
2023/03/12 02:58:58;;;;;;;2.73;1.67;;;0.10;99.90;;;;;;4991881;28;20506;-66
2023/03/12 03:01:23;;;;;;;4.57;1.83;;;0.10;99.90;;;;;;4992275;28;20188;-65
2023/03/12 03:03:49;;;;;;;13.37;2.10;;;0.20;99.90;;;;;;4991427;28;20187;-65
2023/03/12 03:06:16;;;;;;;5.80;1.63;;;0.20;99.90;;;;;;4992245;28;20192;-66
2023/03/12 03:08:41;;;;;;;7.10;2.40;;;0.30;99.90;;;;;;4995296;28;20191;-65
2023/03/12 03:11:07;;;;;;;4.23;1.70;;;0.40;99.90;;;;;;4991667;28;20434;-65
2023/03/12 03:13:33;;;;;;;2.23;1.30;;;0.40;99.90;;;;;;4990884;28;20215;-65
2023/03/12 03:16:00;;;;;;;6.10;2.00;;;0.40;99.90;;;;;;4992258;28;20187;-66
2023/03/12 03:18:27;;;;;;;4.80;1.60;;;0.40;99.90;;;;;;4991938;28;20819;-65
2023/03/12 03:20:56;;;;;;;2.70;1.37;;;0.50;99.90;;;;;;4991913;28;20424;-65
2023/03/12 03:23:22;;;;;;;3.73;1.43;;;0.50;99.90;;;;;;4988384;28;20449;-66
2023/03/12 03:25:47;;;;;;;2.90;1.30;;;0.50;99.90;;;;;;4988081;28;20462;-65
2023/03/12 03:28:13;;;;;;;5.23;1.87;;;0.60;99.90;;;;;;4991488;28;20663;-65
2023/03/12 03:30:38;;;;;;;3.53;1.50;;;0.50;99.90;;;;;;4990820;28;20222;-65
2023/03/12 03:33:05;;;;;;;6.30;2.00;;;0.60;99.90;;;;;;4991008;28;20215;-66
2023/03/12 03:35:33;;;;;;;4.70;2.17;;;0.60;99.90;;;;;;4991718;28;20180;-65
2023/03/12 03:37:58;;;;;;;2.80;1.53;;;0.60;99.90;;;;;;4991306;28;20427;-65
2023/03/12 03:40:24;;;;;;;3.07;1.63;;;0.60;99.90;;;;;;4991330;28;20458;-65
2023/03/12 03:42:49;;;;;;;11.80;1.93;;;0.70;99.90;;;;;;4990729;28;20200;-66
2023/03/12 03:45:16;;;;;;;6.00;2.10;;;0.70;99.90;;;;;;4990468;28;20192;-65
2023/03/12 03:47:42;;;;;;;5.63;2.33;;;0.70;99.90;;;;;;5000692;28;20628;-65
2023/03/12 03:50:08;;;;;;;3.33;2.10;;;0.80;99.90;;;;;;4991677;28;20423;-66
2023/03/12 03:52:34;;;;;;;3.30;1.30;;;0.80;99.90;;;;;;4990415;28;20227;-66
2023/03/12 03:54:59;;;;;;;7.60;1.80;;;0.80;99.90;;;;;;4991793;28;20808;-65
2023/03/12 03:57:26;;;;;;;3.03;1.50;;;0.80;99.90;;;;;;4991045;28;20234;-66
2023/03/12 03:59:51;;;;;;;3.30;1.40;;;0.80;99.90;;;;;;4995120;28;20262;-66
2023/03/12 04:02:17;;;;;;;2.33;1.70;;;0.70;99.90;;;;;;4995764;28;20458;-65
2023/03/12 04:04:43;;;;;;;6.20;1.33;;;0.70;99.90;;;;;;4995480;28;20683;-65
2023/03/12 04:07:09;;;;;;;6.77;2.23;;;0.70;99.90;;;;;;5000429;28;20182;-65
2023/03/12 04:09:35;;;;;;;5.30;2.10;;;0.70;99.90;;;;;;4992039;28;20272;-65
2023/03/12 04:12:00;;;;;;;3.53;1.53;;;0.70;99.90;;;;;;4994169;28;20223;-66
2023/03/12 04:14:26;;;;;;;2.20;1.43;;;0.70;99.90;;;;;;4996095;28;20489;-66
2023/03/12 04:16:52;;;;;;;3.97;1.90;;;0.70;99.90;;;;;;4996076;28;20532;-66
2023/03/12 04:19:18;;;;;;;5.13;2.00;;;0.70;99.90;;;;;;4995702;28;20184;-65
2023/03/12 04:21:44;;;;;;;6.50;2.80;;;0.80;99.90;;;;;;4994393;28;20485;-65
2023/03/12 04:24:14;;;;;;;8.30;2.20;;;0.80;99.90;;;;;;4996014;28;20180;-66
2023/03/12 04:26:40;;;;;;;3.60;1.93;;;0.80;99.90;;;;;;4994619;28;20461;-65
2023/03/12 04:29:06;;;;;;;5.50;2.40;;;0.80;99.90;;;;;;4995540;28;20430;-66
2023/03/12 04:31:32;;;;;;;6.00;1.77;;;0.80;99.90;;;;;;4995326;28;20423;-65
2023/03/12 04:33:58;;;;;;;2.73;1.40;;;0.80;99.90;;;;;;4995237;28;20692;-66
2023/03/12 04:36:24;;;;;;;2.87;2.10;;;0.80;99.90;;;;;;4991157;28;20679;-65
2023/03/12 04:38:49;;;;;;;4.10;1.80;;;0.80;99.90;;;;;;4995320;28;20199;-66
2023/03/12 04:41:16;;;;;;;7.93;2.17;;;0.90;99.90;;;;;;4994506;28;20435;-65
2023/03/12 04:43:42;;;;;;;6.13;2.43;;;0.90;99.90;;;;;;4994775;28;20660;-65
2023/03/12 04:46:08;;;;;;;2.30;1.60;;;0.90;99.90;;;;;;4981887;28;20438;-65
2023/03/12 04:48:34;;;;;;;3.43;1.73;;;0.90;99.90;;;;;;4995306;28;20770;-65
2023/03/12 04:51:01;;;;;;;4.20;1.60;;;0.90;99.90;;;;;;4995620;28;20521;-65
2023/03/12 04:53:26;;;;;;;6.20;1.73;;;0.90;99.90;;;;;;4995082;28;20505;-66
2023/03/12 04:55:52;;;;;;;3.17;1.70;;;0.90;99.90;;;;;;4988677;28;20454;-66
2023/03/12 04:58:18;;;;;;;9.20;2.83;;;0.90;99.90;;;;;;4995005;28;20519;-65
2023/03/12 05:00:45;;;;;;;2.97;1.57;;;0.90;99.90;;;;;;4995114;28;20180;-65
2023/03/12 05:03:11;;;;;;;3.43;1.50;;;1.00;99.90;;;;;;4994389;28;20901;-66
2023/03/12 05:05:37;;;;;;;4.33;2.00;;;1.00;99.90;;;;;;4994260;28;20427;-66
2023/03/12 05:08:03;;;;;;;3.30;1.67;;;1.00;99.90;;;;;;4999004;28;20198;-66
2023/03/12 05:10:29;;;;;;;11.03;2.13;;;1.00;99.90;;;;;;4993971;28;20672;-65
2023/03/12 05:12:55;;;;;;;4.40;2.67;;;1.10;99.90;;;;;;4992605;28;20466;-66
2023/03/12 05:15:21;;;;;;;5.13;2.40;;;1.10;99.90;;;;;;4994912;28;20303;-66
2023/03/12 05:17:46;;;;;;;5.30;2.00;;;1.10;99.90;;;;;;4994353;28;20625;-65
2023/03/12 05:20:12;;;;;;;9.90;2.50;;;1.10;99.90;;;;;;4994769;28;20180;-65
2023/03/12 05:22:38;;;;;;;7.10;2.80;;;1.10;99.90;;;;;;4994132;28;20207;-66
2023/03/12 05:25:04;;;;;;;4.30;2.27;;;1.10;99.90;;;;;;4990820;28;20913;-66
2023/03/12 05:27:31;;;;;;;5.10;1.77;;;1.20;99.90;;;;;;4993766;28;20226;-66
2023/03/12 05:29:56;;;;;;;6.50;2.70;;;1.20;99.90;;;;;;4994821;28;20438;-66
2023/03/12 05:32:22;;;;;;;9.50;2.77;;;1.20;99.90;;;;;;5006035;28;20498;-66
2023/03/12 05:34:47;;;;;;;4.60;2.20;;;1.20;99.90;;;;;;4995553;28;20186;-65
2023/03/12 05:37:13;;;;;;;5.93;1.80;;;1.20;99.90;;;;;;4994475;28;20187;-65
2023/03/12 05:39:45;;;;;;;3.30;2.10;;;1.30;99.90;;;;;;4999897;28;20195;-65
2023/03/12 05:42:11;;;;;;;2.50;1.83;;;1.30;99.90;;;;;;5000298;28;20175;-66
2023/03/12 05:44:37;;;;;;;5.13;2.50;;;1.30;99.90;;;;;;5007717;28;20445;-66
2023/03/12 05:47:03;;;;;;;3.30;1.87;;;1.30;99.90;;;;;;4994107;28;20467;-66
2023/03/12 05:49:30;;;;;;;4.37;1.90;;;1.30;99.90;;;;;;4994030;28;20234;-65
2023/03/12 05:51:56;;;;;;;5.30;2.40;;;1.30;99.90;;;;;;4993790;28;20184;-65
2023/03/12 05:54:22;;;;;;;9.97;2.00;;;1.40;99.90;;;;;;4994015;28;20521;-66
2023/03/12 05:56:48;;;;;;;4.10;2.13;;;1.40;99.90;;;;;;4994125;28;20869;-66
2023/03/12 05:59:13;;;;;;;3.30;1.73;;;1.30;99.90;;;;;;4993248;28;20417;-65
2023/03/12 06:01:39;;;;;;;10.40;2.17;;;1.30;99.90;;;;;;4993405;28;20652;-65
2023/03/12 06:04:06;;;;;;;4.50;2.33;;;1.30;99.90;;;;;;4993542;28;20184;-65
2023/03/12 06:06:33;;;;;;;5.00;2.00;;;1.40;99.90;;;;;;4994296;28;20431;-65
2023/03/12 06:08:59;;;;;;;5.50;2.60;;;1.40;99.90;;;;;;4997245;28;20518;-66
2023/03/12 06:11:24;;;;;;;8.73;1.90;;;1.30;99.90;;;;;;4987857;28;20498;-65
2023/03/12 06:13:50;;;;;;;3.40;1.50;;;1.30;99.90;;;;;;4992503;28;20660;-65
2023/03/12 06:16:18;;;;;;;8.43;3.20;;;1.30;99.90;;;;;;4993653;28;20188;-66
2023/03/12 06:18:44;;;;;;;5.03;2.30;;;1.30;99.90;;;;;;5000795;28;20621;-65
2023/03/12 06:21:14;;;;;;;5.83;2.70;;;1.30;99.90;;;;;;4999228;28;20418;-65
2023/03/12 06:23:41;;;;;;;5.90;2.87;;;1.30;99.90;;;;;;4993569;28;20222;-65
2023/03/12 06:26:07;;;;;;;7.50;3.03;;;1.30;99.90;;;;;;4994942;28;20525;-65
2023/03/12 06:28:33;;;;;;;3.30;2.30;;;1.30;99.90;;;;;;5004404;28;20446;-65
2023/03/12 06:30:59;;;;;;;10.30;3.47;;;1.30;99.90;;;;;;4989371;28;20439;-65
2023/03/12 06:33:25;;;;;;;7.30;2.30;;;1.30;99.90;;;;;;4992638;28;20466;-64
2023/03/12 06:35:55;;;;;;;9.73;3.10;;;1.30;99.90;;;;;;4993146;28;20213;-65
2023/03/12 06:38:20;;;;;;;3.83;2.17;;;1.30;99.90;;;;;;4993303;28;20233;-65
2023/03/12 06:40:53;;;;;;;3.73;2.23;;;1.30;99.90;;;;;;4993167;28;20529;-64
2023/03/12 06:43:19;;;;;;;3.80;2.03;;;1.30;99.90;;;;;;4992017;28;20203;-64
2023/03/12 06:45:44;;;;;;;2.17;1.40;;;1.30;99.90;;;;;;4993063;28;20473;-64
2023/03/12 06:48:10;;;;;;;4.33;1.70;;;1.30;99.90;;;;;;4992739;28;20203;-65
2023/03/12 06:50:36;;;;;;;5.97;2.60;;;1.30;99.90;;;;;;4993280;28;20258;-65
2023/03/12 06:53:02;;;;;;;5.10;2.30;;;1.40;99.90;;;;;;4992131;28;20214;-64
2023/03/12 06:55:27;;;;;;;3.33;1.80;;;1.40;99.90;;;;;;4993056;28;20772;-64
2023/03/12 06:57:53;;;;;;;3.33;2.03;;;1.40;99.90;;;;;;4992142;28;20194;-64
2023/03/12 07:00:19;;;;;;;3.57;1.90;;;1.40;99.90;;;;;;4993050;28;20192;-64
2023/03/12 07:02:44;;;;;;;4.17;2.27;;;1.50;99.90;;;;;;4991903;28;20184;-65
2023/03/12 07:05:10;;;;;;;5.80;3.90;;;1.50;99.90;;;;;;4992983;28;21167;-65
2023/03/12 07:07:37;;;;;;;18.73;4.37;;;1.50;99.90;;;;;;4996543;28;20184;-64
2023/03/12 07:10:05;;;;;;;8.80;3.73;;;1.40;99.90;;;;;;4992935;28;20180;-64
2023/03/12 07:12:31;;;;;;;3.63;2.37;;;1.40;99.90;;;;;;5000758;28;20466;-64
2023/03/12 07:14:57;;;;;;;5.73;2.97;;;1.40;99.90;;;;;;4992886;28;20915;-65
2023/03/12 07:17:24;;;;;;;2.87;2.10;;;1.40;99.90;;;;;;4991358;28;20431;-64
2023/03/12 07:19:50;;;;;;;7.93;2.60;;;1.40;99.90;;;;;;4989759;28;20525;-64
2023/03/12 07:22:15;;;;;;;32.73;3.40;;;1.30;99.90;;;;;;4990889;28;20431;-64
2023/03/12 07:24:41;;;;;;;5.70;2.80;;;1.40;99.90;;;;;;4991803;28;20933;-64
2023/03/12 07:27:07;;;;;;;6.83;3.20;;;1.50;99.90;;;;;;4991626;28;20514;-65
2023/03/12 07:29:32;;;;;;;4.83;2.63;;;1.60;99.90;;;;;;4992048;28;20587;-64
2023/03/12 07:31:58;;;;;;;3.17;2.40;;;1.70;99.90;;;;;;4991613;28;20632;-64
2023/03/12 07:34:24;;;;;;;3.63;2.53;;;1.70;99.90;;;;;;4990313;28;20211;-64
2023/03/12 07:36:49;;;;;;;5.00;2.90;;;1.80;99.90;;;;;;4990919;28;20405;-64
2023/03/12 07:39:15;;;;;;;7.83;2.93;;;1.90;99.90;;;;;;4991188;28;20180;-65
2023/03/12 07:41:41;;;;;;;5.37;3.07;;;2.00;99.90;;;;;;4991781;28;20203;-64
2023/03/12 07:44:08;;;;;;;7.00;3.10;;;2.10;99.90;;;;;;4991202;28;20199;-64
2023/03/12 07:46:33;;;;;;;13.20;2.70;;;2.20;99.90;;;;;;4991112;28;20227;-64
2023/03/12 07:48:59;;;;;;;7.33;3.30;;;2.40;99.90;;;;;;4992116;28;20419;-64
2023/03/12 07:51:25;;;;;;;4.73;3.30;;;2.60;99.90;;;;;;4992124;28;20787;-64
2023/03/12 07:53:51;;;;;;;6.43;2.90;;;3.00;99.90;;;;;;4991765;28;20501;-65
2023/03/12 07:56:17;;;;;;;8.10;3.53;;;3.10;99.90;;;;;;4992406;28;20258;-64
2023/03/12 07:58:42;;;;;;;6.73;3.33;;;3.10;99.90;;;;;;4991409;28;20191;-65
2023/03/12 08:01:08;;;;;;;8.37;3.13;;;3.20;99.90;;;;;;4987773;28;20572;-64
2023/03/12 08:03:34;;;;;;;11.00;4.43;;;3.30;99.90;;;;;;4990368;28;20203;-64
2023/03/12 08:06:01;;;;;;;5.23;3.00;;;3.30;99.90;;;;;;4991141;28;20236;-64
2023/03/12 08:08:28;;;;;;;6.77;4.10;;;3.70;99.90;;;;;;4995169;28;20305;-64
2023/03/12 08:10:54;;;;;;;5.90;3.53;;;4.10;99.90;;;;;;4990779;28;20521;-65
2023/03/12 08:13:21;;;;;;;7.30;3.50;;;4.40;99.90;;;;;;4989802;28;21054;-65
2023/03/12 08:15:49;;;;;;;5.33;3.13;;;4.40;99.90;;;;;;4990884;28;20184;-64
2023/03/12 08:18:15;;;;;;;8.80;3.90;;;4.30;99.90;;;;;;4991262;28;20820;-64
2023/03/12 08:20:40;;;;;;;5.63;3.07;;;4.30;99.90;;;;;;4999579;28;20426;-65
2023/03/12 08:23:06;;;;;;;4.57;2.40;;;4.20;99.90;;;;;;4994005;28;20266;-64
2023/03/12 08:25:31;;;;;;;7.03;3.87;;;4.10;99.90;;;;;;5001228;28;20279;-65
2023/03/12 08:27:57;;;;;;;5.70;3.10;;;4.10;99.90;;;;;;4990543;28;20188;-65
2023/03/12 08:30:23;;;;;;;8.23;3.30;;;4.00;99.90;;;;;;4990984;28;20700;-65
2023/03/12 08:32:48;;;;;;;8.33;3.80;;;4.00;99.90;;;;;;4990418;28;20240;-65
2023/03/12 08:35:14;;;;;;;8.27;4.40;;;4.10;99.90;;;;;;4991032;28;20766;-65
2023/03/12 08:37:40;;;;;;;11.50;5.40;;;4.00;99.90;;;;;;4991133;28;20731;-65
2023/03/12 08:40:11;;;;;;;10.70;3.57;;;3.90;99.90;;;;;;5000083;28;20281;-65
2023/03/12 08:42:40;;;;;;;7.00;4.20;;;4.00;99.90;;;;;;4992978;28;20426;-64
2023/03/12 08:45:07;;;;;;;7.90;3.97;;;4.00;99.90;;;;;;4993005;28;20477;-64
2023/03/12 08:47:33;;;;;;;10.37;4.27;;;4.00;99.90;;;;;;5007664;28;20797;-65
2023/03/12 08:49:58;;;;;;;7.93;3.47;;;4.10;99.90;;;;;;4998575;28;20480;-64
2023/03/12 08:52:24;;;;;;;6.70;3.80;;;4.20;99.90;;;;;;4994123;28;20190;-65
2023/03/12 08:54:49;;;;;;;5.63;3.40;;;4.30;99.90;;;;;;4994724;28;20203;-66
2023/03/12 08:57:15;;;;;;;7.70;4.00;;;4.30;99.90;;;;;;4993932;28;20184;-64
2023/03/12 08:59:41;;;;;;;10.73;4.43;;;4.40;99.90;;;;;;4994703;28;20274;-65
2023/03/12 09:02:06;;;;;;;8.40;3.07;;;4.50;99.90;;;;;;4993465;28;20188;-65
2023/03/12 09:04:32;;;;;;;6.03;3.73;;;4.70;99.90;;;;;;5004389;28;20183;-65
2023/03/12 09:07:00;;;;;;;8.03;3.90;;;4.90;99.90;;;;;;4999461;28;20188;-64
2023/03/12 09:09:25;;;;;;;5.10;2.53;;;5.40;99.90;;;;;;5002346;28;20188;-65
2023/03/12 09:11:51;;;;;;;7.40;3.47;;;5.60;99.90;;;;;;4993528;28;20572;-65
2023/03/12 09:14:16;;;;;;;5.87;3.97;;;5.70;99.90;;;;;;4993727;28;20214;-65
2023/03/12 09:16:42;;;;;;;4.13;2.10;;;5.80;99.90;;;;;;5009014;28;20640;-65
2023/03/12 09:19:08;;;;;;;4.80;2.30;;;5.80;99.90;;;;;;4997575;28;20184;-65
2023/03/12 09:21:33;;;;;;;5.80;3.00;;;5.90;99.90;;;;;;4993490;28;20594;-64
2023/03/12 09:23:59;;;;;;;7.37;2.97;;;5.80;99.90;;;;;;4994209;28;20310;-65
2023/03/12 09:26:25;;;;;;;10.13;3.23;;;5.80;99.90;;;;;;4993597;28;20188;-65
2023/03/12 09:28:50;;;;;;;4.90;2.43;;;5.90;99.90;;;;;;4990377;28;20589;-64
2023/03/12 09:31:16;;;;;;;7.73;3.67;;;5.80;99.90;;;;;;4994028;28;20187;-65
2023/03/12 09:33:41;;;;;;;4.40;2.70;;;5.80;99.90;;;;;;5004377;28;20238;-65
2023/03/12 09:36:07;;;;;;;6.40;3.60;;;5.80;99.90;;;;;;4993824;28;20179;-65
2023/03/12 09:38:34;;;;;;;6.30;3.60;;;5.80;99.90;;;;;;5001426;28;20222;-65
2023/03/12 09:41:02;;;;;;;4.60;2.30;;;5.90;99.90;;;;;;4998285;28;20290;-65
2023/03/12 09:43:35;;;;;;;8.80;3.43;;;6.10;99.90;;;;;;4992174;28;20427;-65
2023/03/12 09:46:01;;;;;;;8.17;3.10;;;6.20;99.90;;;;;;4993094;28;20447;-64
2023/03/12 09:48:34;;;;;;;5.53;3.27;;;6.50;99.90;;;;;;4992758;28;20536;-64
2023/03/12 09:51:06;;;;;;;4.60;2.70;;;6.70;99.90;;;;;;4993120;28;20433;-65
2023/03/12 09:53:47;;;;;;;4.97;2.57;;;6.90;99.90;;;;;;4991829;28;20490;-65
2023/03/12 09:56:16;;;;;;;4.90;2.87;;;7.20;99.90;;;;;;4992908;28;20446;-65
2023/03/12 09:58:46;;;;;;;5.43;2.30;;;7.50;99.90;;;;;;4992096;28;20958;-65
2023/03/12 10:01:27;;;;;;;4.77;2.57;;;7.70;99.90;;;;;;4993142;28;20526;-65
2023/03/12 10:04:15;;;;;;;3.50;2.13;;;7.80;99.90;;;;;;4992148;28;20433;-65
2023/03/12 10:07:19;;;;;;;7.73;2.80;;;8.00;99.90;;;;;;4994483;28;20908;-65
2023/03/12 10:10:07;;;;;;;2.90;1.40;;;7.90;99.90;;;;;;4992639;28;20925;-65
2023/03/12 10:12:40;;;;;;;2.50;1.60;;;8.00;99.90;;;;;;4991703;28;20823;-65
2023/03/12 10:15:26;;;;;;;3.70;1.70;;;8.00;99.90;;;;;;5005998;28;20442;-65
2023/03/12 10:18:07;;;;;;;2.40;0.93;;;8.10;99.90;;;;;;4991906;28;20454;-65
2023/03/12 10:20:50;;;;;;;2.33;1.00;;;8.20;99.90;;;;;;4993138;28;20423;-65
2023/03/12 10:23:51;;;;;;;2.37;1.50;;;8.30;99.90;;;;;;4992775;28;20419;-64
2023/03/12 10:26:24;;;;;;;1.87;0.90;;;8.50;99.90;;;;;;4909974;28;20453;-65
2023/03/12 10:28:56;;;;;;;2.70;1.10;;;8.60;99.90;;;;;;4992160;28;20458;-66
2023/03/12 10:31:34;;;;;;;9.40;1.20;;;8.80;99.90;;;;;;4992495;28;20459;-64
2023/03/12 10:34:02;;;;;;;2.20;1.00;;;9.00;99.90;;;;;;4992545;28;20467;-65
2023/03/12 10:36:38;;;;;;;3.03;0.80;;;9.10;99.90;;;;;;4992509;28;20430;-64
2023/03/12 10:39:11;;;;;;;2.63;1.10;;;9.20;99.90;;;;;;4992443;28;20422;-65
2023/03/12 10:41:37;;;;;;;4.27;1.07;;;9.10;99.90;;;;;;4992267;28;20461;-65
2023/03/12 10:44:07;;;;;;;3.40;1.10;;;9.40;99.90;;;;;;4992044;28;20426;-65
2023/03/12 10:46:35;;;;;;;1.37;0.60;;;9.70;99.90;;;;;;4992116;28;20261;-65
2023/03/12 10:49:20;;;;;;;1.50;0.70;;;9.70;99.90;;;;;;4992133;28;20481;-65
2023/03/12 10:51:57;;;;;;;3.33;1.23;;;9.60;99.90;;;;;;4983084;28;20427;-65
2023/03/12 10:54:33;;;;;;;3.50;0.93;;;9.60;99.90;;;;;;4992030;28;20470;-65
2023/03/12 10:57:00;;;;;;;2.37;0.80;;;9.60;99.90;;;;;;4991832;28;20427;-65
2023/03/12 10:59:29;;;;;;;1.87;0.80;;;9.80;99.90;;;;;;4992532;28;20423;-65
2023/03/12 11:01:55;;;;;;;1.80;0.90;;;10.20;99.90;;;;;;4991652;28;20863;-65
2023/03/12 11:04:25;;;;;;;5.37;1.60;;;10.10;99.90;;;;;;4991876;28;20423;-65
2023/03/12 11:07:15;;;;;;;3.00;1.07;;;10.00;99.90;;;;;;4994655;28;20419;-65
2023/03/12 11:09:40;;;;;;;1.83;0.80;;;9.80;99.90;;;;;;4985812;28;20942;-65
2023/03/12 11:12:29;;;;;;;2.87;0.80;;;9.70;99.90;;;;;;4990894;28;20423;-66
2023/03/12 11:14:55;;;;;;;1.43;0.70;;;9.60;99.90;;;;;;4990609;28;20196;-65
2023/03/12 11:17:27;;;;;;;3.00;0.73;;;9.60;99.90;;;;;;4991641;28;20422;-65
2023/03/12 11:19:53;;;;;;;4.13;1.07;;;9.60;99.90;;;;;;4991716;28;20736;-65
2023/03/12 11:22:32;;;;;;;1.60;0.90;;;9.90;99.90;;;;;;4991543;28;20927;-65
2023/03/12 11:25:00;;;;;;;1.40;0.60;;;10.10;99.90;;;;;;4990034;28;20431;-65
2023/03/12 11:27:39;;;;;;;1.13;0.50;;;10.10;99.90;;;;;;4991234;28;20639;-65
2023/03/12 11:30:10;;;;;;;2.80;0.70;;;10.10;99.90;;;;;;4976512;28;20546;-65
2023/03/12 11:32:44;;;;;;;2.23;1.23;;;10.20;99.90;;;;;;4988313;28;20466;-66
2023/03/12 11:35:15;;;;;;;5.97;0.80;;;10.10;99.90;;;;;;4990027;28;20431;-65
2023/03/12 11:37:56;;;;;;;1.90;0.90;;;10.00;99.90;;;;;;4990350;28;20446;-65
2023/03/12 11:40:48;;;;;;;3.03;0.80;;;9.90;99.90;;;;;;4990074;28;20787;-66
2023/03/12 11:43:23;;;;;;;2.27;0.70;;;9.90;99.90;;;;;;4990009;28;20437;-65
2023/03/12 11:45:48;;;;;;;2.10;0.83;;;10.00;99.90;;;;;;4989765;28;20513;-65
2023/03/12 11:48:45;;;;;;;2.07;1.17;;;10.10;99.90;;;;;;4990774;28;20462;-65
2023/03/12 11:51:36;;;;;;;1.47;0.60;;;10.20;99.90;;;;;;4989816;28;20219;-65
2023/03/12 11:54:26;;;;;;;1.20;0.50;;;10.40;99.90;;;;;;4988238;28;20970;-65
2023/03/12 11:56:55;;;;;;;7.80;1.00;;;10.50;99.90;;;;;;4990739;28;20415;-65
2023/03/12 11:59:29;;;;;;;2.73;1.00;;;10.50;99.90;;;;;;4990950;28;20418;-65
2023/03/12 12:02:16;;;;;;;7.03;1.10;;;10.50;99.90;;;;;;4990191;28;20429;-65
2023/03/12 12:05:00;;;;;;;2.90;1.00;;;10.70;99.90;;;;;;4990183;28;20415;-65
2023/03/12 12:07:51;;;;;;;5.10;1.23;;;10.70;99.90;;;;;;4994301;28;20849;-65
2023/03/12 12:10:24;;;;;;;3.83;1.10;;;10.70;99.90;;;;;;4990109;28;20425;-65
2023/03/12 12:13:05;;;;;;;7.87;1.27;;;10.80;99.90;;;;;;4989778;28;20462;-66
2023/03/12 12:15:46;;;;;;;2.70;0.80;;;10.90;99.90;;;;;;4978400;28;20473;-65
2023/03/12 12:18:29;;;;;;;4.60;1.10;;;11.00;99.90;;;;;;4991257;28;20419;-65
2023/03/12 12:20:57;;;;;;;8.47;1.23;;;11.10;99.90;;;;;;4994187;28;20422;-65
2023/03/12 12:23:32;;;;;;;13.60;1.13;;;11.50;99.90;;;;;;4994029;28;20518;-65
2023/03/12 12:26:08;;;;;;;1.70;0.97;;;11.40;99.90;;;;;;4987727;28;20799;-65
2023/03/12 12:28:53;;;;;;;3.13;0.90;;;11.40;99.90;;;;;;4989175;28;20435;-66
2023/03/12 12:31:24;;;;;;;2.90;1.37;;;11.60;99.90;;;;;;4992189;28;20446;-66
2023/03/12 12:34:11;;;;;;;6.60;1.90;;;11.40;99.90;;;;;;4986860;28;20471;-66
2023/03/12 12:36:37;;;;;;;5.10;0.80;;;11.60;99.90;;;;;;4986026;28;20501;-66
2023/03/12 12:39:15;;;;;;;1.70;0.80;;;11.70;99.90;;;;;;4992239;28;20462;-66
2023/03/12 12:41:50;;;;;;;2.97;1.43;;;11.80;99.90;;;;;;4989928;28;20945;-66
2023/03/12 12:44:33;;;;;;;1.60;0.77;;;11.90;99.90;;;;;;4986637;28;20436;-65
2023/03/12 12:47:04;;;;;;;5.63;0.93;;;11.70;99.90;;;;;;4992099;28;20446;-65
2023/03/12 12:49:56;;;;;;;2.33;1.10;;;11.60;99.90;;;;;;4993448;28;20442;-65
2023/03/12 12:52:21;;;;;;;1.60;0.80;;;11.50;99.90;;;;;;4986645;28;20450;-65
2023/03/12 12:54:57;;;;;;;4.93;0.80;;;11.60;99.90;;;;;;4992827;28;20493;-66
2023/03/12 12:57:36;;;;;;;3.43;0.93;;;11.50;99.90;;;;;;4991402;28;20567;-66
2023/03/12 13:00:35;;;;;;;3.77;1.03;;;11.50;99.90;;;;;;4993049;28;20963;-66
2023/03/12 13:03:01;;;;;;;3.50;1.20;;;11.40;99.90;;;;;;4987803;28;21034;-66